Time;durP1;ratioP1;P1;durP2;ratioP2;P2;SDS_P1;SDS_P2;PMS_P1;PMS_P2;Temp;Humidity;BMP_temperature;BMP_pressure;BME280_temperature;BME280_humidity;BME280_pressure;Samples;Min_cycle;Max_cycle;Signal;HPM_P1;HPM_P2
2022/01/27 00:01:31;;;;;;;14.03;10.30;;;;;;;2.48;82.07;100242.22;5050527;28;20200;-54
2022/01/27 00:04:10;;;;;;;14.90;10.70;;;;;;;2.52;82.28;100248.28;5075077;28;20208;-54
2022/01/27 00:06:39;;;;;;;14.77;10.50;;;;;;;2.46;82.08;100240.50;5092589;28;20201;-55
2022/01/27 00:09:16;;;;;;;14.50;10.47;;;;;;;2.42;82.69;100246.41;5092510;28;20215;-53
2022/01/27 00:11:46;;;;;;;14.07;10.63;;;;;;;2.31;82.96;100232.56;5092499;28;20203;-54
2022/01/27 00:14:14;;;;;;;16.27;10.83;;;;;;;2.42;82.77;100247.28;5092403;28;20572;-54
2022/01/27 00:16:51;;;;;;;14.77;10.27;;;;;;;2.39;83.78;100251.47;5092627;28;20630;-55
2022/01/27 00:19:18;;;;;;;17.33;10.97;;;;;;;2.31;83.72;100256.50;5092474;28;20266;-54
2022/01/27 00:21:45;;;;;;;16.73;9.97;;;;;;;2.35;83.84;100258.28;5092296;28;20202;-54
2022/01/27 00:24:15;;;;;;;15.97;11.20;;;;;;;2.35;83.92;100259.97;5092317;28;20695;-56
2022/01/27 00:26:42;;;;;;;14.63;10.77;;;;;;;2.37;84.34;100263.44;5092135;28;20275;-56
2022/01/27 00:29:09;;;;;;;15.80;10.57;;;;;;;2.42;84.72;100257.53;5092378;28;20327;-56
2022/01/27 00:31:36;;;;;;;17.93;11.20;;;;;;;2.52;84.43;100256.81;5092163;28;20194;-55
2022/01/27 00:34:04;;;;;;;13.53;10.20;;;;;;;2.58;83.82;100256.06;5092146;28;20218;-56
2022/01/27 00:36:32;;;;;;;15.83;11.17;;;;;;;2.52;84.38;100254.28;5092135;28;20205;-56
2022/01/27 00:38:59;;;;;;;19.67;11.07;;;;;;;2.50;84.65;100250.81;5092179;28;20217;-56
2022/01/27 00:41:28;;;;;;;16.07;11.13;;;;;;;2.41;85.86;100244.69;5092370;28;20687;-56
2022/01/27 00:43:54;;;;;;;21.57;11.43;;;;;;;2.47;85.40;100242.25;5091798;28;20196;-56
2022/01/27 00:46:21;;;;;;;18.93;12.03;;;;;;;2.50;86.14;100244.81;5091917;28;20287;-54
2022/01/27 00:48:50;;;;;;;16.00;11.20;;;;;;;2.43;85.98;100225.94;5091611;28;20340;-54
2022/01/27 00:51:21;;;;;;;24.03;12.53;;;;;;;2.43;86.64;100228.50;5091696;28;20632;-54
2022/01/27 00:53:53;;;;;;;16.97;11.60;;;;;;;2.55;86.04;100238.09;5091478;28;20207;-54
2022/01/27 00:56:25;;;;;;;21.27;12.07;;;;;;;2.45;86.64;100233.66;5091705;28;20203;-55
2022/01/27 00:59:16;;;;;;;17.17;11.50;;;;;;;2.44;86.84;100237.94;5091664;28;20201;-55
2022/01/27 01:01:49;;;;;;;17.43;10.80;;;;;;;2.16;88.48;100216.13;5091653;28;20228;-55
2022/01/27 01:04:23;;;;;;;18.97;11.87;;;;;;;2.30;89.01;100230.84;5091476;28;20670;-54
2022/01/27 01:06:51;;;;;;;18.50;11.20;;;;;;;2.41;87.59;100230.19;5091582;28;20253;-54
2022/01/27 01:14:51;;;;;;;18.57;11.03;;;;;;;2.48;88.60;100221.75;5091381;28;20582;-55
2022/01/27 01:17:44;;;;;;;18.80;12.03;;;;;;;2.50;87.74;100217.50;5091342;28;20197;-55
2022/01/27 01:20:37;;;;;;;17.30;11.57;;;;;;;2.46;87.60;100212.31;5091273;28;20286;-54
2022/01/27 01:31:32;;;;;;;17.50;11.63;;;;;;;2.57;87.78;100210.78;5090938;28;20692;-54
2022/01/27 01:34:12;;;;;;;17.43;11.80;;;;;;;2.66;87.16;100210.91;5091133;28;20200;-54
2022/01/27 01:36:48;;;;;;;18.37;11.80;;;;;;;2.59;87.50;100213.38;5091110;28;20625;-54
2022/01/27 01:39:15;;;;;;;16.97;10.80;;;;;;;2.57;87.50;100215.91;5090923;28;20197;-56
2022/01/27 01:41:43;;;;;;;14.50;11.20;;;;;;;2.63;87.12;100215.97;5090751;28;20625;-56
2022/01/27 01:44:10;;;;;;;16.60;11.90;;;;;;;2.67;86.25;100204.09;5090751;28;20191;-56
2022/01/27 01:46:39;;;;;;;19.87;11.10;;;;;;;2.71;86.15;100196.44;5091056;28;20701;-56
2022/01/27 01:49:07;;;;;;;18.57;11.53;;;;;;;2.68;85.86;100198.13;5090752;28;20224;-57
2022/01/27 01:51:36;;;;;;;17.63;10.43;;;;;;;2.73;85.97;100192.19;5090849;28;20358;-56
2022/01/27 01:54:04;;;;;;;16.17;11.03;;;;;;;2.62;85.87;100178.38;5090628;28;20232;-55
2022/01/27 01:56:31;;;;;;;16.13;11.03;;;;;;;2.64;85.83;100196.34;5090962;28;20640;-54
2022/01/27 01:58:58;;;;;;;15.40;10.80;;;;;;;2.61;85.81;100198.84;5090568;28;20193;-56
2022/01/27 02:01:25;;;;;;;18.00;11.60;;;;;;;2.60;86.09;100192.88;5089819;28;20208;-54
2022/01/27 02:03:54;;;;;;;17.30;10.70;;;;;;;2.58;85.35;100166.38;5090491;28;20215;-54
2022/01/27 02:06:27;;;;;;;17.60;11.20;;;;;;;2.78;85.89;100192.28;5090416;28;20211;-55
2022/01/27 02:19:58;;;;;;;15.10;10.43;;;;;;;2.75;85.57;100185.41;5090449;28;20194;-54
2022/01/27 02:22:25;;;;;;;16.00;10.07;;;;;;;2.80;84.09;100180.34;5090319;28;20197;-54
2022/01/27 02:24:53;;;;;;;13.30;9.97;;;;;;;2.85;84.45;100189.81;5090295;28;20218;-53
2022/01/27 02:27:21;;;;;;;15.30;10.53;;;;;;;2.86;84.03;100195.78;5090292;28;20197;-54
2022/01/27 02:29:48;;;;;;;13.07;9.83;;;;;;;2.97;83.21;100185.66;5090068;28;20220;-54
2022/01/27 02:32:16;;;;;;;16.53;10.00;;;;;;;2.95;83.16;100192.47;5090347;28;20201;-54
2022/01/27 02:34:44;;;;;;;13.50;10.47;;;;;;;2.92;83.94;100191.63;5090119;28;20192;-54
2022/01/27 02:37:13;;;;;;;14.00;10.40;;;;;;;2.92;83.80;100188.19;5090120;28;20196;-55
2022/01/27 02:39:40;;;;;;;17.20;11.30;;;;;;;2.95;84.05;100192.47;5090138;28;20194;-54
2022/01/27 02:42:15;;;;;;;16.60;10.33;;;;;;;2.99;83.87;100194.25;5090274;28;20700;-54
2022/01/27 02:44:56;;;;;;;14.60;9.87;;;;;;;2.82;85.22;100187.19;5090126;28;20202;-54
2022/01/27 02:47:25;;;;;;;15.13;10.27;;;;;;;2.71;86.35;100193.03;5090216;28;20552;-54
2022/01/27 02:49:52;;;;;;;16.37;10.80;;;;;;;2.72;86.68;100185.34;5089950;28;20226;-54
2022/01/27 02:52:20;;;;;;;15.10;10.50;;;;;;;2.48;87.47;100159.41;5090115;28;20198;-55
2022/01/27 02:54:47;;;;;;;18.20;11.07;;;;;;;2.67;87.54;100184.44;5089808;28;20244;-55
2022/01/27 02:57:14;;;;;;;14.70;9.97;;;;;;;2.80;86.78;100188.91;5090049;28;20206;-55
2022/01/27 02:59:41;;;;;;;16.07;10.83;;;;;;;2.76;87.43;100182.00;5090193;28;20278;-55
2022/01/27 03:02:08;;;;;;;12.27;9.77;;;;;;;2.80;86.77;100183.78;5090228;28;20198;-54
2022/01/27 03:04:35;;;;;;;19.33;11.03;;;;;;;2.80;87.17;100177.78;5089889;28;20211;-54
2022/01/27 03:07:05;;;;;;;15.90;9.70;;;;;;;2.76;85.94;100156.38;5089806;28;20241;-54
2022/01/27 03:09:34;;;;;;;14.43;9.93;;;;;;;2.93;85.50;100171.97;5090039;28;20754;-55
2022/01/27 03:12:06;;;;;;;14.87;9.77;;;;;;;3.00;85.04;100180.59;5090072;28;20677;-55
2022/01/27 03:14:33;;;;;;;13.87;9.50;;;;;;;2.87;85.25;100179.56;5093677;28;20196;-56
2022/01/27 03:17:01;;;;;;;15.50;10.27;;;;;;;2.85;85.47;100169.28;5093550;28;20244;-56
2022/01/27 03:19:28;;;;;;;17.13;10.00;;;;;;;2.89;84.82;100176.19;5093607;28;20262;-55
2022/01/27 03:21:57;;;;;;;11.90;9.13;;;;;;;3.05;83.53;100174.66;5093459;28;20610;-56
2022/01/27 03:24:25;;;;;;;14.70;9.87;;;;;;;2.85;84.06;100161.59;5093412;28;20203;-57
2022/01/27 03:26:54;;;;;;;13.57;9.60;;;;;;;3.00;84.55;100175.47;5093312;28;20201;-56
2022/01/27 03:29:21;;;;;;;14.20;9.40;;;;;;;2.71;85.46;100170.81;5093444;28;20310;-56
2022/01/27 03:31:48;;;;;;;13.13;9.23;;;;;;;2.63;86.00;100159.59;5093453;28;20295;-56
2022/01/27 03:34:16;;;;;;;13.60;10.17;;;;;;;2.82;85.66;100168.41;5093205;28;20203;-57
2022/01/27 03:36:43;;;;;;;13.87;9.57;;;;;;;2.99;84.87;100171.16;5093321;28;20188;-56
2022/01/27 03:39:10;;;;;;;13.43;9.50;;;;;;;2.90;84.28;100162.53;5093526;28;20199;-56
2022/01/27 03:41:39;;;;;;;14.53;9.47;;;;;;;2.91;84.02;100171.09;5093099;28;20201;-54
2022/01/27 03:44:08;;;;;;;12.50;9.00;;;;;;;3.07;84.12;100182.38;5093107;28;20281;-53
2022/01/27 03:46:35;;;;;;;12.77;8.70;;;;;;;3.09;83.37;100180.69;5093045;28;20206;-56
2022/01/27 03:49:02;;;;;;;10.30;8.70;;;;;;;3.21;82.89;100178.28;5092870;28;20202;-54
2022/01/27 03:51:29;;;;;;;14.43;9.23;;;;;;;3.09;82.73;100180.69;5093108;28;20201;-55
2022/01/27 03:53:56;;;;;;;13.83;8.90;;;;;;;3.08;82.97;100168.72;5092965;28;20197;-54
2022/01/27 03:56:22;;;;;;;13.07;9.30;;;;;;;3.17;82.68;100185.06;5092844;28;20205;-54
2022/01/27 03:58:50;;;;;;;13.17;9.20;;;;;;;3.19;82.57;100188.50;5092874;28;20284;-54
2022/01/27 04:01:18;;;;;;;12.47;8.33;;;;;;;3.25;81.42;100198.00;5092276;28;20199;-55
2022/01/27 04:03:45;;;;;;;11.10;8.13;;;;;;;3.16;81.72;100193.59;5079340;28;20312;-56
2022/01/27 04:06:19;;;;;;;11.53;8.43;;;;;;;3.13;81.35;100202.97;5077365;28;20199;-57
2022/01/27 04:08:46;;;;;;;11.97;8.87;;;;;;;3.19;81.29;100203.91;5091233;28;20643;-56
2022/01/27 04:11:13;;;;;;;12.87;8.33;;;;;;;3.13;81.46;100206.41;5091312;28;20217;-56
2022/01/27 04:13:40;;;;;;;13.37;9.70;;;;;;;3.09;82.48;100201.22;5087263;28;20194;-57
2022/01/27 04:16:07;;;;;;;15.80;9.97;;;;;;;3.13;82.63;100202.97;5089040;28;20570;-55
2022/01/27 04:18:35;;;;;;;16.67;10.80;;;;;;;3.18;82.19;100203.88;5091196;28;20196;-55
2022/01/27 04:21:02;;;;;;;13.93;9.50;;;;;;;3.06;83.53;100206.28;5088101;28;20205;-55
2022/01/27 04:23:29;;;;;;;15.40;9.60;;;;;;;2.99;83.62;100214.75;5088196;28;20297;-56
2022/01/27 04:25:56;;;;;;;12.03;8.97;;;;;;;2.93;84.51;100215.56;5083509;28;20698;-55
2022/01/27 04:28:27;;;;;;;13.77;9.30;;;;;;;2.95;84.00;100210.44;5088298;28;20201;-55
2022/01/27 04:30:56;;;;;;;12.23;8.73;;;;;;;2.86;84.30;100208.63;5089587;28;20216;-55
2022/01/27 04:33:26;;;;;;;12.60;8.63;;;;;;;2.99;82.37;100214.75;5087794;28;20204;-54
2022/01/27 04:35:58;;;;;;;12.10;8.67;;;;;;;2.96;81.58;100205.31;5090562;28;20209;-56
2022/01/27 04:38:30;;;;;;;12.37;8.57;;;;;;;2.92;82.30;100209.56;5090506;28;20288;-57
2022/01/27 04:41:06;;;;;;;11.57;7.97;;;;;;;3.08;81.40;100226.00;5090499;28;20581;-57
2022/01/27 04:43:39;;;;;;;10.90;7.63;;;;;;;3.15;80.36;100232.94;5088651;28;20200;-56
2022/01/27 04:46:17;;;;;;;10.43;7.23;;;;;;;3.17;80.26;100231.22;5087759;28;20264;-56
2022/01/27 04:48:49;;;;;;;11.27;8.00;;;;;;;3.18;80.15;100237.22;5090756;28;20575;-56
2022/01/27 04:51:20;;;;;;;11.10;7.77;;;;;;;3.20;79.90;100245.81;5090474;28;20309;-56
2022/01/27 04:53:52;;;;;;;10.30;7.67;;;;;;;3.25;79.95;100244.19;5087731;28;20218;-56
2022/01/27 04:56:20;;;;;;;9.83;8.20;;;;;;;3.27;80.59;100247.63;5090557;28;20583;-57
2022/01/27 04:58:51;;;;;;;11.80;8.57;;;;;;;3.23;81.27;100248.41;5087773;28;20643;-55
2022/01/27 05:01:21;;;;;;;12.87;9.63;;;;;;;3.25;81.85;100254.44;5091027;28;20690;-56
2022/01/27 05:03:53;;;;;;;12.43;8.67;;;;;;;3.27;81.34;100252.75;5090072;28;20252;-53
2022/01/27 05:06:22;;;;;;;12.70;9.10;;;;;;;3.26;83.45;100251.91;5088386;28;20742;-54
2022/01/27 05:08:48;;;;;;;13.83;9.03;;;;;;;3.31;82.77;100254.50;5090243;28;20671;-54
2022/01/27 05:11:22;;;;;;;11.40;8.77;;;;;;;3.38;81.95;100252.88;5091023;28;20221;-54
2022/01/27 05:13:54;;;;;;;11.13;8.00;;;;;;;3.52;80.67;100259.88;5090433;28;20703;-55
2022/01/27 05:16:21;;;;;;;12.13;8.40;;;;;;;3.38;81.52;100263.16;5091166;28;20221;-54
2022/01/27 05:18:47;;;;;;;12.23;9.43;;;;;;;3.39;81.78;100260.56;5090396;28;20558;-54
2022/01/27 05:21:14;;;;;;;12.03;8.90;;;;;;;3.36;81.11;100262.25;5091516;28;20197;-54
2022/01/27 05:23:43;;;;;;;12.00;8.07;;;;;;;3.35;81.55;100268.25;5091115;28;20293;-54
2022/01/27 05:26:10;;;;;;;11.07;8.03;;;;;;;3.36;80.77;100264.84;5091448;28;20193;-56
2022/01/27 05:28:37;;;;;;;11.60;7.87;;;;;;;3.37;80.95;100264.00;5090929;28;20202;-56
2022/01/27 05:31:05;;;;;;;10.03;8.00;;;;;;;3.26;81.53;100261.28;5094379;28;20218;-56
2022/01/27 05:33:32;;;;;;;11.07;8.10;;;;;;;3.11;82.08;100261.09;5111574;28;20583;-56
2022/01/27 05:36:02;;;;;;;12.13;7.93;;;;;;;3.20;81.93;100261.19;5111136;28;20193;-57
2022/01/27 05:38:31;;;;;;;10.50;8.00;;;;;;;3.23;81.51;100268.94;5105263;28;20596;-57
2022/01/27 05:40:59;;;;;;;14.03;8.93;;;;;;;3.20;81.78;100269.75;5107991;28;20246;-57
2022/01/27 05:43:26;;;;;;;11.87;8.07;;;;;;;3.19;81.73;100270.59;5111106;28;20223;-56
2022/01/27 05:45:53;;;;;;;9.10;7.90;;;;;;;3.23;81.62;100274.94;5110935;28;20198;-56
2022/01/27 05:48:20;;;;;;;8.70;7.47;;;;;;;3.28;80.71;100273.28;5111098;28;20199;-56
2022/01/27 05:50:47;;;;;;;9.10;7.50;;;;;;;3.22;80.69;100280.03;5111126;28;20242;-57
2022/01/27 05:53:14;;;;;;;9.30;7.20;;;;;;;3.24;81.01;100268.09;5110809;28;20239;-56
2022/01/27 05:55:41;;;;;;;9.70;7.93;;;;;;;3.25;80.45;100282.66;5110752;28;20233;-56
2022/01/27 05:58:09;;;;;;;9.23;7.20;;;;;;;3.26;80.95;100271.56;5104704;28;20599;-56
2022/01/27 06:00:36;;;;;;;9.90;7.70;;;;;;;3.16;81.08;100280.81;5090572;28;20229;-56
2022/01/27 06:03:03;;;;;;;9.20;7.90;;;;;;;3.39;79.34;100283.66;5090408;28;20203;-57
2022/01/27 06:05:30;;;;;;;9.40;7.53;;;;;;;3.41;79.47;100292.25;5090602;28;20189;-56
2022/01/27 06:07:57;;;;;;;9.07;7.47;;;;;;;3.49;78.86;100292.38;5086679;28;20204;-56
2022/01/27 06:10:24;;;;;;;8.37;7.00;;;;;;;3.44;79.02;100300.00;5078211;28;20217;-56
2022/01/27 06:12:53;;;;;;;8.60;7.17;;;;;;;3.35;79.74;100292.19;5079812;28;20187;-57
2022/01/27 06:15:22;;;;;;;10.13;7.50;;;;;;;3.44;78.38;100297.44;5079043;28;20187;-57
2022/01/27 06:17:49;;;;;;;14.70;7.93;;;;;;;3.39;79.03;100293.94;5090506;28;20694;-57
2022/01/27 06:20:17;;;;;;;10.40;8.30;;;;;;;3.29;79.00;100295.53;5073007;28;20192;-57
2022/01/27 06:22:44;;;;;;;14.93;8.20;;;;;;;3.37;79.59;100300.78;5079580;28;20237;-57
2022/01/27 06:25:12;;;;;;;9.97;7.80;;;;;;;3.49;79.13;100300.94;5078790;28;20629;-56
2022/01/27 06:27:39;;;;;;;13.20;8.20;;;;;;;3.53;77.99;100291.53;5088838;28;20590;-56
2022/01/27 06:30:10;;;;;;;13.83;9.23;;;;;;;3.67;77.46;100295.13;5073275;28;20309;-56
2022/01/27 06:32:39;;;;;;;11.20;9.03;;;;;;;3.56;78.35;100302.72;5074582;28;20275;-56
2022/01/27 06:35:07;;;;;;;11.47;8.23;;;;;;;3.55;77.34;100301.00;5077621;28;20217;-57
2022/01/27 06:37:35;;;;;;;11.30;8.27;;;;;;;3.49;77.50;100277.84;5079604;28;20304;-56
2022/01/27 06:40:02;;;;;;;8.77;7.87;;;;;;;3.69;75.93;100300.28;5078258;28;20198;-55
2022/01/27 06:42:29;;;;;;;9.53;7.13;;;;;;;3.62;76.67;100310.47;5077921;28;20285;-56
2022/01/27 06:44:56;;;;;;;10.43;7.80;;;;;;;3.58;76.04;100307.88;5077656;28;20285;-57
2022/01/27 06:47:23;;;;;;;8.67;7.10;;;;;;;3.64;75.85;100310.50;5090653;28;20222;-55
2022/01/27 06:49:51;;;;;;;9.97;7.37;;;;;;;3.62;75.77;100310.47;5080273;28;20220;-55
2022/01/27 06:52:20;;;;;;;9.50;6.90;;;;;;;3.58;75.48;100311.31;5080245;28;20219;-54
2022/01/27 06:54:49;;;;;;;19.47;11.23;;;;;;;3.77;75.02;100316.63;5077194;28;20241;-53
2022/01/27 06:57:16;;;;;;;12.87;8.40;;;;;;;3.86;74.64;100316.75;5081337;28;20218;-55
2022/01/27 06:59:43;;;;;;;12.10;8.17;;;;;;;3.65;74.32;100281.41;5075763;28;20772;-59
2022/01/27 07:02:10;;;;;;;12.33;8.30;;;;;;;3.74;74.85;100324.31;5073616;28;20206;-55
2022/01/27 07:04:37;;;;;;;8.47;6.90;;;;;;;3.79;75.19;100326.09;5073433;28;20194;-55
2022/01/27 07:07:05;;;;;;;7.90;6.57;;;;;;;3.93;77.58;100324.53;5073136;28;20200;-55
2022/01/27 07:09:32;;;;;;;9.00;6.57;;;;;;;4.33;85.00;100319.78;5077051;28;20241;-56
2022/01/27 07:11:59;;;;;;;8.40;6.83;;;;;;;4.36;76.16;100330.09;5080489;28;20614;-53
2022/01/27 07:14:26;;;;;;;16.03;6.80;;;;;;;4.46;74.75;100331.03;5082257;28;20234;-53
2022/01/27 07:16:55;;;;;;;28.93;7.53;;;;;;;4.64;72.93;100341.47;5081490;28;20247;-53
2022/01/27 07:19:22;;;;;;;38.13;8.40;;;;;;;4.61;72.00;100344.03;5082148;28;20227;-54
2022/01/27 07:21:49;;;;;;;33.03;8.20;;;;;;;4.67;71.96;100341.50;5080730;28;20622;-54
2022/01/27 07:24:17;;;;;;;26.60;8.07;;;;;;;4.75;71.37;100345.84;5080439;28;20211;-57
2022/01/27 07:26:44;;;;;;;17.57;6.73;;;;;;;4.87;71.62;100341.66;5082275;28;20230;-57
2022/01/27 07:29:11;;;;;;;61.20;8.37;;;;;;;4.92;70.59;100328.00;5083114;28;20211;-56
2022/01/27 07:31:38;;;;;;;55.40;10.10;;;;;;;5.11;70.25;100346.97;5077463;28;20616;-58
2022/01/27 07:34:05;;;;;;;15.20;7.60;;;;;;;5.15;70.17;100346.16;5080583;28;20192;-56
2022/01/27 07:36:32;;;;;;;17.43;7.33;;;;;;;5.22;69.72;100349.63;5081926;28;20192;-56
2022/01/27 07:39:01;;;;;;;14.50;9.17;;;;;;;5.27;69.50;100342.81;5082437;28;20192;-57
2022/01/27 07:41:29;;;;;;;9.27;7.03;;;;;;;5.34;68.93;100339.41;5080229;28;20248;-56
2022/01/27 07:43:56;;;;;;;15.60;7.53;;;;;;;5.47;68.67;100338.59;5080760;28;20192;-57
2022/01/27 07:46:23;;;;;;;12.23;6.70;;;;;;;5.44;68.58;100341.16;5081230;28;20568;-57
2022/01/27 07:48:50;;;;;;;10.77;6.80;;;;;;;5.49;68.11;100342.06;5077669;28;20195;-56
2022/01/27 07:51:17;;;;;;;11.07;6.40;;;;;;;5.52;67.62;100341.22;5074166;28;20606;-56
2022/01/27 07:53:44;;;;;;;11.00;7.43;;;;;;;5.57;67.37;100349.81;5072443;28;20204;-56
2022/01/27 07:56:11;;;;;;;16.53;9.03;;;;;;;5.60;68.14;100355.00;5071477;28;20226;-58
2022/01/27 07:58:42;;;;;;;11.80;8.33;;;;;;;5.71;67.18;100358.47;5085346;28;20584;-57
2022/01/27 08:01:09;;;;;;;16.80;8.03;;;;;;;5.58;66.30;100326.66;5090812;28;20191;-57
2022/01/27 08:03:36;;;;;;;15.10;6.80;;;;;;;5.71;66.34;100358.47;5092505;28;20191;-54
2022/01/27 08:06:04;;;;;;;7.57;6.80;;;;;;;5.54;66.73;100348.06;5092516;28;20192;-54
2022/01/27 08:08:31;;;;;;;13.17;7.07;;;;;;;5.55;67.11;100365.25;5092281;28;20684;-53
2022/01/27 08:10:58;;;;;;;7.57;6.77;;;;;;;5.47;67.73;100359.22;5092470;28;20219;-54
2022/01/27 08:13:26;;;;;;;12.23;7.33;;;;;;;5.44;67.72;100372.91;5088867;28;20704;-54
2022/01/27 08:15:55;;;;;;;10.60;7.67;;;;;;;5.35;67.89;100370.28;5077164;28;20224;-56
2022/01/27 08:18:22;;;;;;;11.47;7.60;;;;;;;5.24;68.30;100374.53;5081124;28;20216;-54
2022/01/27 08:20:50;;;;;;;12.57;7.60;;;;;;;5.03;68.66;100352.09;5078626;28;20211;-54
2022/01/27 08:23:17;;;;;;;9.37;7.03;;;;;;;4.99;69.81;100365.75;5078955;28;20198;-55
2022/01/27 08:25:48;;;;;;;10.60;7.37;;;;;;;5.10;69.80;100373.56;5078860;28;20282;-54
2022/01/27 08:28:22;;;;;;;10.63;7.60;;;;;;;5.09;69.75;100377.84;5091483;28;20200;-55
2022/01/27 08:30:52;;;;;;;10.90;6.77;;;;;;;5.01;70.63;100368.34;5092285;28;20218;-54
2022/01/27 08:33:20;;;;;;;8.70;6.77;;;;;;;5.03;70.92;100380.38;5091787;28;20195;-55
2022/01/27 08:35:47;;;;;;;10.17;7.50;;;;;;;4.96;70.92;100354.63;5091825;28;20265;-55
2022/01/27 08:38:14;;;;;;;11.90;8.00;;;;;;;5.09;71.37;100375.28;5092058;28;20286;-56
2022/01/27 08:40:41;;;;;;;11.73;7.23;;;;;;;5.11;70.81;100380.44;5091572;28;20196;-55
2022/01/27 08:43:09;;;;;;;12.43;7.13;;;;;;;5.26;69.93;100375.41;5091739;28;20196;-57
2022/01/27 08:45:38;;;;;;;10.93;7.53;;;;;;;5.41;69.53;100384.94;5091915;28;20673;-57
2022/01/27 08:48:06;;;;;;;11.13;7.47;;;;;;;5.38;69.23;100369.47;5091763;28;20199;-56
2022/01/27 08:50:35;;;;;;;11.87;7.83;;;;;;;5.60;69.50;100381.59;5091554;28;20242;-56
2022/01/27 08:53:02;;;;;;;14.70;7.97;;;;;;;5.72;68.98;100384.25;5091492;28;20231;-56
2022/01/27 08:55:29;;;;;;;12.07;8.60;;;;;;;5.75;69.32;100386.84;5071661;28;20776;-55
2022/01/27 08:57:56;;;;;;;11.27;9.33;;;;;;;5.91;68.72;100381.75;5082034;28;20235;-56
2022/01/27 09:00:23;;;;;;;11.23;8.23;;;;;;;6.10;68.26;100389.56;5091806;28;20195;-55
2022/01/27 09:02:50;;;;;;;11.87;7.37;;;;;;;6.35;67.29;100382.75;5091459;28;20577;-56
2022/01/27 09:05:17;;;;;;;14.07;7.87;;;;;;;6.45;67.02;100381.03;5091358;28;20282;-57
2022/01/27 09:07:45;;;;;;;9.33;6.93;;;;;;;6.65;66.17;100381.09;5091247;28;20191;-55
2022/01/27 09:10:12;;;;;;;9.30;6.77;;;;;;;6.75;66.18;100385.41;5090739;28;20199;-55
2022/01/27 09:12:39;;;;;;;8.63;6.37;;;;;;;6.92;66.36;100379.38;5091360;28;20215;-55
2022/01/27 09:15:07;;;;;;;9.57;6.80;;;;;;;6.75;66.90;100380.25;5091163;28;20282;-56
2022/01/27 09:17:39;;;;;;;6.60;6.00;;;;;;;6.73;65.92;100384.53;5091097;28;20217;-56
2022/01/27 09:20:10;;;;;;;6.87;6.10;;;;;;;6.92;65.38;100383.66;5090925;28;20195;-56
2022/01/27 09:22:37;;;;;;;8.37;6.57;;;;;;;6.77;65.50;100379.34;5091009;28;20196;-56
2022/01/27 09:25:13;;;;;;;8.30;6.77;;;;;;;6.75;66.14;100377.66;5082457;28;20311;-55
2022/01/27 09:27:42;;;;;;;7.50;6.17;;;;;;;6.87;66.23;100380.25;5070128;28;20255;-55
2022/01/27 09:30:11;;;;;;;8.10;7.03;;;;;;;6.95;65.64;100367.34;5076679;28;20227;-55
2022/01/27 09:32:38;;;;;;;8.00;6.37;;;;;;;7.01;65.69;100372.47;5085496;28;20232;-55
2022/01/27 09:35:06;;;;;;;7.90;6.10;;;;;;;7.13;65.02;100370.75;5070374;28;20198;-55
2022/01/27 09:37:33;;;;;;;7.10;6.40;;;;;;;7.27;64.47;100363.84;5070749;28;20727;-56
2022/01/27 09:40:00;;;;;;;6.47;5.87;;;;;;;7.49;63.90;100368.97;5069791;28;20204;-56
2022/01/27 09:42:32;;;;;;;7.13;6.03;;;;;;;7.46;62.95;100366.38;5070620;28;20293;-55
2022/01/27 09:45:03;;;;;;;6.70;6.03;;;;;;;7.42;63.65;100368.13;5070392;28;20203;-56
2022/01/27 09:47:32;;;;;;;8.87;6.97;;;;;;;7.39;63.26;100368.13;5070482;28;20654;-57
2022/01/27 09:50:09;;;;;;;10.10;6.27;;;;;;;7.44;62.93;100357.78;5070512;28;20586;-55
2022/01/27 09:52:36;;;;;;;12.63;6.93;;;;;;;7.44;64.10;100361.25;5070280;28;20220;-55
2022/01/27 09:55:04;;;;;;;9.53;7.50;;;;;;;7.20;66.09;100336.31;5070165;28;20231;-55
2022/01/27 09:57:32;;;;;;;8.30;7.40;;;;;;;7.31;64.79;100350.94;5070223;28;20278;-56
2022/01/27 10:00:01;;;;;;;8.97;7.87;;;;;;;7.29;67.20;100343.19;5069894;28;20226;-56
2022/01/27 10:02:28;;;;;;;10.33;7.40;;;;;;;7.19;63.96;100339.78;5070218;28;20198;-56
2022/01/27 10:04:57;;;;;;;9.37;7.33;;;;;;;7.20;65.01;100335.47;5070198;28;20196;-56
2022/01/27 10:07:27;;;;;;;13.40;9.23;;;;;;;7.25;64.48;100333.72;5070357;28;20700;-58
2022/01/27 10:09:59;;;;;;;13.20;7.00;;;;;;;7.37;64.01;100327.66;5070506;28;20188;-57
2022/01/27 10:12:28;;;;;;;9.20;7.43;;;;;;;7.41;63.33;100324.22;5070254;28;20228;-57
2022/01/27 10:15:02;;;;;;;7.30;6.60;;;;;;;7.26;63.80;100325.09;5070144;28;20196;-58
2022/01/27 10:17:31;;;;;;;7.60;6.80;;;;;;;7.21;64.94;100326.88;5070418;28;20195;-58
2022/01/27 10:19:58;;;;;;;8.33;6.63;;;;;;;7.20;64.69;100323.41;5071399;28;20199;-58
2022/01/27 10:22:25;;;;;;;11.47;8.30;;;;;;;7.32;63.45;100317.38;5078933;28;20224;-57
2022/01/27 10:25:08;;;;;;;11.43;7.17;;;;;;;7.41;63.81;100313.88;5086870;28;20206;-57
2022/01/27 10:27:46;;;;;;;7.67;6.90;;;;;;;7.40;63.50;100313.03;5090255;28;20218;-57
2022/01/27 10:30:37;;;;;;;10.73;8.00;;;;;;;7.62;62.23;100311.22;5088756;28;20223;-57
2022/01/27 10:33:05;;;;;;;9.23;8.17;;;;;;;7.59;62.90;100306.06;5088492;28;20712;-57
2022/01/27 10:35:33;;;;;;;9.93;8.13;;;;;;;7.50;62.75;100298.34;5083087;28;20218;-56
2022/01/27 10:38:03;;;;;;;11.97;8.40;;;;;;;7.41;63.26;100296.66;5076607;28;20582;-55
2022/01/27 10:40:32;;;;;;;12.90;8.97;;;;;;;7.43;64.16;100294.09;5077495;28;20195;-56
2022/01/27 10:43:04;;;;;;;9.80;8.80;;;;;;;7.43;63.82;100297.53;5078509;28;20191;-56
2022/01/27 10:45:32;;;;;;;13.20;9.90;;;;;;;7.54;63.67;100287.16;5078494;28;20206;-55
2022/01/27 10:48:18;;;;;;;10.60;9.10;;;;;;;7.63;63.14;100292.28;5077645;28;20723;-55
2022/01/27 10:51:00;;;;;;;14.20;9.07;;;;;;;7.56;64.05;100285.44;5077628;28;20257;-56
2022/01/27 10:53:50;;;;;;;19.37;9.33;;;;;;;7.47;63.81;100281.13;5078186;28;20196;-55
2022/01/27 10:56:20;;;;;;;23.93;9.37;;;;;;;7.31;64.69;100283.78;5079460;28;20206;-56
2022/01/27 10:58:47;;;;;;;23.93;9.33;;;;;;;7.06;65.63;100270.94;5077947;28;20203;-54
2022/01/27 11:01:30;;;;;;;12.87;8.43;;;;;;;7.11;64.17;100281.28;5077514;28;20191;-56
2022/01/27 11:04:01;;;;;;;11.17;8.60;;;;;;;7.15;66.06;100270.91;5079361;28;20196;-55
2022/01/27 11:06:28;;;;;;;17.53;10.10;;;;;;;7.26;65.00;100276.06;5077809;28;20207;-56
2022/01/27 11:08:58;;;;;;;17.03;10.33;;;;;;;7.26;66.47;100266.59;5077590;28;20196;-56
2022/01/27 11:11:27;;;;;;;17.10;10.27;;;;;;;7.05;65.93;100264.06;5077629;28;20228;-55
2022/01/27 11:13:58;;;;;;;10.00;7.90;;;;;;;6.91;66.00;100265.81;5077595;28;20191;-55
2022/01/27 11:16:34;;;;;;;19.77;8.33;;;;;;;6.80;65.35;100239.19;5077555;28;20715;-57
2022/01/27 11:19:14;;;;;;;12.90;8.10;;;;;;;6.93;65.90;100264.97;5076836;28;20192;-55
2022/01/27 11:21:44;;;;;;;14.93;9.00;;;;;;;6.76;66.67;100255.53;5076711;28;20191;-55
2022/01/27 11:24:22;;;;;;;11.30;8.53;;;;;;;6.88;65.83;100256.34;5078134;28;20680;-55
2022/01/27 11:26:53;;;;;;;27.37;9.43;;;;;;;7.11;66.06;100255.47;5089482;28;20198;-55
2022/01/27 11:29:21;;;;;;;15.27;8.90;;;;;;;7.21;64.83;100260.59;5089091;28;20203;-56
2022/01/27 11:32:09;;;;;;;11.90;8.57;;;;;;;7.34;64.43;100257.94;5089116;28;20225;-55
2022/01/27 11:34:49;;;;;;;11.93;9.27;;;;;;;7.41;63.55;100257.06;5090965;28;20200;-57
2022/01/27 11:37:18;;;;;;;9.07;8.17;;;;;;;7.18;63.89;100252.84;5081650;28;20223;-57
2022/01/27 11:39:54;;;;;;;10.03;8.07;;;;;;;7.40;63.26;100257.94;5080209;28;20188;-58
2022/01/27 11:42:43;;;;;;;12.13;8.17;;;;;;;7.48;62.72;100246.69;5080545;28;20190;-57
2022/01/27 11:45:33;;;;;;;8.80;7.87;;;;;;;7.65;61.97;100244.03;5062921;28;20210;-58
2022/01/27 11:48:07;;;;;;;10.57;9.23;;;;;;;7.76;61.99;100252.59;5082919;28;20192;-57
2022/01/27 11:50:48;;;;;;;11.27;8.60;;;;;;;7.70;61.97;100241.41;5080717;28;20199;-57
2022/01/27 11:53:32;;;;;;;9.13;8.20;;;;;;;7.70;62.21;100242.28;5080590;28;20302;-57
2022/01/27 11:56:01;;;;;;;9.37;8.47;;;;;;;7.82;61.13;100231.88;5081760;28;20228;-58
2022/01/27 11:58:29;;;;;;;11.60;8.77;;;;;;;7.79;61.18;100226.72;5079890;28;20208;-55
2022/01/27 12:01:21;;;;;;;17.90;9.30;;;;;;;7.75;61.77;100225.03;5080528;28;20282;-54